Terminal Aerodrome Forecast
Issued by NWS

Home | Current Version | Previous Version | Text Only | Print | Product List | Glossary On
Versions: 1 2 3 4 5 6 7 8 9 10 11 12 13 14 15 16 17 18 19 20
000
FTUS46 KMTR 270255 AAA
TAFSNS
TAF AMD
KSNS 270255Z 2703/2724 29014KT 6SM HZ FEW050
      TEMPO 2703/2706 5SM HZ FU BKN004 OVC009
     FM270600 29010KT 1/2SM FG FU VV002
     FM271700 30007KT 4SM HZ FU OVC005
     FM271800 31011KT 6SM HZ FU SCT020 BKN150=

USA.gov is the U.S. government's official web portal to all federal, state and local government web resources and services.